world map with RKE marked

RKE - Airport

This information may not be accurate or current and is not valid for navigation or flight planning. No warranty of fitness for any purpose is made or implied.

flag of Denmark

Donate via PayPal

Additional information is available on the NEW Great Circle Mapper

Location
City:  København, Denmark
Near (Alt.):Copenhagen
Name:Roskilde
ICAO / IATA:EKRK / RKE

Details
Type:Airport (Aerodrome, Airfield)
Latitude:55°35'08"N (55.585567)
Longitude:12°07'53"E (12.131428)
Elevation:146 ft (45 m)
Runways:2
Longest:5902 × 105 ft (1799 × 32 m)

Time
Timezone:UTC+1 (DST+4)
Local Time:

Weather
METAR:EKRK  131950Z AUTO 04005KT 020V080 9999NDV FEW015/// SCT070/// M00/M02 Q1027
TAF:EKRK  (expired)

Related Locations
Nearby:
Farthest:CHT: 11533 mi / 18560 km
Waitangi [Tuuta], CIT, NZ

Find:

   beyond  
but within

Other Information
Maps:
Sources:

  


 


Great Circle Mapper   Great Circle Mapper
Great Circle Mapper FAQ   Great Circle Mapper FAQ
  Karl's Home Page
KLS²   KLS² Home
   GC on Facebook
Airlines of the World   Airlines of the World
Donate via PayPal


Copyright © 2004-2018, Karl L. Swartz. All rights reserved.
All trademarks mentioned herein belong to their respective owners.

Please see credits for attribution and copyright information.

Karl Swartz <karl@kls2.com>
  Powered by FreeBSD
Valid HTML 4.01!
Labeled with ICRA
hCard Microformat
Geo Microformat